Flight Track Log - Related Links

Times and Time Zones

All times are in EDT time to prevent confusion due to time zone crossing. See the LXJ437 flight status page for this flight to view local times or setup timezone preferences in your user account.

Time Position Orientation Groundspeed Altitude Reporting Facility
EDT Latitude Longitude Course Direction KTS MPH feet Rate Location/Type
Sun 05:35:38 PM 46.2167 -84.4500 180° South 160 184 2,100  Level Toronto Center
Sun 05:36:39 PM 46.1667 -84.4500 180° South 180 207 5,100 3,200 Climbing Toronto Center
Sun 05:37:38 PM 46.1500 -84.5167 250° West 210 242 8,500 3,328 Climbing Toronto Center
Sun 05:38:38 PM 46.1000 -84.6167 234° Southwest 270 311 11,700 3,421 Climbing Toronto Center
Sun 05:39:39 PM 46.0667 -84.7339 248° West 323 372 15,400 3,951 Climbing Minneapolis Center
Sun 05:40:41 PM 46.0114 -84.8667 239° Southwest 360 414 19,800 2,880 Climbing Minneapolis Center
Sun 05:41:44 PM 45.9592 -84.9931 239° Southwest 384 442 21,400 2,304 Climbing Minneapolis Center
Sun 05:42:46 PM 45.8978 -85.1386 239° Southwest 419 482 24,600 3,629 Climbing Minneapolis Center
Sun 05:43:48 PM 45.8275 -85.3089 239° Southwest 417 480 28,900 3,048 Climbing Minneapolis Center
Sun 05:44:50 PM 45.7697 -85.4467 239° Southwest 408 470 30,900 1,854 Climbing Minneapolis Center
Sun 05:45:51 PM 45.7086 -85.5892 238° Southwest 421 484 32,700 1,854 Climbing Minneapolis Center
Sun 05:46:53 PM 45.6603 -85.7033 239° Southwest 422 486 34,700 1,742 Climbing Minneapolis Center
Sun 05:47:55 PM 45.5900 -85.8719 239° Southwest 415 478 36,300 1,839 Climbing Minneapolis Center
Sun 05:48:57 PM 45.5292 -86.0139 239° Southwest 420 483 38,500 1,742 Climbing Minneapolis Center
Sun 05:49:59 PM 45.4581 -86.1783 238° Southwest 413 475 39,900 726 Climbing Minneapolis Center
Sun 05:51:01 PM 45.3983 -86.3208 239° Southwest 418 481 40,000 48 Climbing Minneapolis Center
Sun 05:52:03 PM 45.3386 -86.4583 238° Southwest 415 478 40,000  Level Minneapolis Center
Sun 05:53:05 PM 45.2889 -86.6006 244° Southwest 411 473 40,000  Level Minneapolis Center
Sun 05:54:19 PM 45.2778 -86.7619 264° West 414 476 40,000 -132 Level Minneapolis Center
Sun 05:55:21 PM 45.2642 -86.9878 265° West 413 475 39,700 -629 Descending Minneapolis Center
Sun 05:56:23 PM 45.2539 -87.1511 265° West 417 480 38,700 -823 Descending Minneapolis Center
Sun 05:57:25 PM 45.2431 -87.3178 265° West 424 488 38,000 -339 Descending Minneapolis Center
Sun 05:58:27 PM 45.2319 -87.4839 265° West 425 489 38,000  Level Minneapolis Center
Sun 05:59:29 PM 45.2214 -87.6522 265° West 430 495 38,000  Level Minneapolis Center
Sun 06:00:31 PM 45.2100 -87.8175 264° West 424 488 38,000  Level Minneapolis Center
Sun 06:01:32 PM 45.1961 -88.0183 264° West 428 493 38,000  Level Minneapolis Center
Sun 06:02:34 PM 45.1836 -88.1858 264° West 430 495 38,000 -194 Level Minneapolis Center
Sun 06:03:36 PM 45.1714 -88.3525 264° West 426 490 37,600 -677 Descending Minneapolis Center
Sun 06:04:38 PM 45.1589 -88.5186 264° West 426 490 36,600 -774 Descending Minneapolis Center
Sun 06:05:40 PM 45.1472 -88.6853 264° West 428 493 36,000 -290 Descending Minneapolis Center
Sun 06:06:42 PM 45.1328 -88.8506 263° West 425 489 36,000  Level Minneapolis Center
Sun 06:07:44 PM 45.1197 -89.0175 264° West 426 490 36,000  Level Minneapolis Center
Sun 06:08:45 PM 45.1042 -89.2156 264° West 421 484 36,000 -341 Level Minneapolis Center
Sun 06:09:47 PM 45.0903 -89.3814 263° West 423 487 35,300 -871 Descending Minneapolis Center
Sun 06:10:49 PM 45.0761 -89.5578 264° West 430 495 34,200 -1,016 Descending Minneapolis Center
Sun 06:11:51 PM 45.0611 -89.7239 263° West 429 494 33,200 -968 Descending Minneapolis Center
Sun 06:12:53 PM 45.0478 -89.8881 263° West 434 499 32,200 -581 Descending Minneapolis Center
Sun 06:13:55 PM 45.0322 -90.0603 263° West 439 505 32,000 -97 Descending Minneapolis Center
Sun 06:14:57 PM 45.0319 -90.2331 270° West 438 504 32,000  Level Minneapolis Center
Sun 06:16:11 PM 45.0347 -90.4367 271° West 431 496 32,000  Level Minneapolis Center
Sun 06:17:13 PM 45.0381 -90.6381 271° West 427 491 32,000  Level Minneapolis Center
Sun 06:18:15 PM 45.0394 -90.8083 271° West 432 497 32,000 -435 Level Minneapolis Center
Sun 06:19:17 PM 45.0414 -90.9664 271° West 427 491 31,100 -1,839 Descending Minneapolis Center
Sun 06:20:19 PM 45.0442 -91.1261 271° West 414 476 28,200 -3,145 Descending Minneapolis Center
Sun 06:21:21 PM 45.0444 -91.3147 270° West 405 466 24,600 -3,194 Descending Minneapolis Center
Sun 06:22:23 PM 45.0458 -91.4669 271° West 395 455 21,600 -2,439 Descending Minneapolis Center
Sun 06:23:24 PM 45.0464 -91.5831 270° West 381 438 19,600 -2,371 Descending Minneapolis Center
Sun 06:24:27 PM 45.0461 -91.7581 270° West 376 433 16,700 -2,352 Descending Minneapolis Center
Sun 06:25:29 PM 45.0494 -91.8956 272° West 359 413 14,700 -1,790 Descending Minneapolis Center
Sun 06:26:31 PM 45.0486 -92.0278 270° West 340 391 13,000 -1,548 Descending Minneapolis Center
Sun 06:27:33 PM 45.0489 -92.1822 270° West 328 377 11,500 -968 Descending Minneapolis Center
Sun 06:28:35 PM 45.0475 -92.3119 269° West 332 382 11,000 -242 Descending Minneapolis Center
Sun 06:29:37 PM 45.0131 -92.4306 248° West 327 376 11,000  Level Minneapolis Center
Sun 06:30:39 PM 44.9594 -92.5356 234° Southwest 329 379 11,000  Level Minneapolis Center
Sun 06:31:41 PM 44.9094 -92.6419 236° Southwest 327 376 11,000 -1,500 Level Minneapolis Center
Sun 06:32:43 PM 44.8592 -92.7108 224° Southwest 263 303 7,900 -2,613 Descending Minneapolis Center
Sun 06:33:45 PM 44.8078 -92.8056 233° Southwest 257 296 5,600 -1,597 Descending Minneapolis Center
Sun 06:34:47 PM 44.7750 -92.8933 242° Southwest 259 298 4,600 -780 Descending Minneapolis Center
Sun 06:35:48 PM 44.7758 -92.9714 271° West 252 290 4,000 -439 Descending Minneapolis Center
Sun 06:36:50 PM 44.8125 -93.0592 301° West 204 235 3,700 -677 Descending Minneapolis Center
Sun 06:37:52 PM 44.8375 -93.1172 301° West 178 205 2,600 -1,113 Descending Minneapolis Center
Sun 06:38:54 PM 44.8594 -93.1686 301° West 125 144 1,400 -1,161 Descending Minneapolis Center
Sun 06:40:00 PM 44.8667 -93.2167 299° West  Level FlightAware Approximate
Sun 06:47:00 PM 44.8820 -93.2218 299° West  Level Estimated
Sun 06:48:00 PM 44.8820 -93.2218 299° West  Level Estimated

Login

Don't have an account? Register now (free) for customized features, flight alerts, and more!